Airfield :
LOGIN :

Register | Disclaimer

   EN    FR    IT 

 










Legend :    VFR   Marginal VFR   IFR   Intensive IFR   Very Intensive IFR
Visi :
Ceiling :
>= 8 km
>= 3000ft
5 to 8 km
1000 to 3000 ft
1500m to 5 km
500 to 1000 ft
800 to 1500m
200 to 500 ft
< 800m
< 200 ft
Symbols :   Thunderstorms  Fog  Heavy snow  Heavy precipitations  Wind > 20 kt
SIGMETs :     Misc.  Thunderstorms  Icing  Turbulence  Mountain Waves  Volcanic Ashes







- Airport Elevation : 74 ft
- IATA code : MRS
- Download approach charts


LFML - Marseille / Marignane

CURRENT METAR :
  • 191100Z AUTO VRB01KT 9999 OVC045 12/06 Q1024 NOSIG

EXPIRED METARs :
  • 191030Z AUTO 26003KT 9999 OVC044 10/06 Q1024 NOSIG
  • 191000Z AUTO 27004KT 9999 4700 OVC044 10/06 Q1024 NOSIG
  • 190930Z AUTO 34003KT 310V020 9999 OVC043 10/06 Q1024 NOSIG
  • 190900Z AUTO VRB02KT 9999 OVC041 09/06 Q1024 NOSIG
  • 190830Z AUTO 01002KT 9999 FEW008 BKN042 09/06 Q1024 NOSIG

TAF TAF LFML
Valid from the 19 at 09:00 until the 20 at 15:00 UTC


190800Z 1909/2015 VRB05KT CAVOK TX15/1915Z TN02/2006Z
TEMPO 2000/2006 2000 BR
ATIS : +33 4 42 31 15 15
No reported NOTAMs for that airfield.



MET'MAP, your aeronautical weather chart ! - Copyright ORBIFLY December 2007 - Disclaimer

ORBIFLY MET'MAP TEAM :

Programming & Development : Alexandra Zaïnal
Concept & Development : Baudouin d'Aumeries
Co-Development & Prog : Marc-Olivier Méhu
Technical & hardware support : Manuel Goepfert

Contact : metmap@orbifly.com




SOURCES & CREDITS :

   NOAA